.
WxDataArchive / Data Records for 2013-01-12
2013-01-11 January 2013 2013-01-13

Data Records for Saturday, 12 January 2013

Time	Temp	Chill	HIndex	Humid	Dewpt	 Wind 	HiWind	WindDir	Rain 	Barom 
-----	----	-----	------	-----	-----	------	------	-------	-----	----- 
00:00	49.5	49.5	49.5	89	46.4	0	3	225	0.00	29.836 
00:05	49.6	49.6	49.6	89	46.5	1	5	248	0.00	29.836 
00:10	49.6	49.6	49.6	88	46.2	0	1	248	0.00	29.836 
00:15	49.6	49.6	49.6	88	46.2	0	2	248	0.00	29.826 
00:20	49.8	49.8	49.8	88	46.4	0	3	248	0.00	29.826 
00:25	49.8	49.8	49.8	88	46.4	0	2	248	0.00	29.826 
00:30	49.9	49.9	49.9	88	46.5	1	3	248	0.00	29.830 
00:35	49.9	49.9	49.9	87	46.2	0	4	248	0.00	29.830 
00:40	49.9	49.9	49.9	87	46.2	1	3	248	0.00	29.830 
00:45	50.2	50.2	50.2	87	46.5	1	9	248	0.00	29.828 
00:50	50.4	50.4	50.4	87	46.7	0	3	248	0.00	29.828 
00:55	50.4	50.4	50.4	86	46.4	1	5	248	0.00	29.828 
01:00	50.5	50.5	50.5	86	46.5	1	4	248	0.00	29.829 
01:05	50.8	50.8	50.8	86	46.8	1	3	248	0.00	29.829 
01:10	51.0	51.0	51.0	85	46.7	1	5	248	0.00	29.829 
01:15	51.0	51.0	51.0	85	46.7	1	3	248	0.00	29.832 
01:20	51.0	51.0	51.0	84	46.3	1	6	248	0.00	29.832 
01:25	51.1	51.1	51.1	84	46.4	1	3	248	0.00	29.832 
01:30	51.3	51.3	51.3	84	46.6	1	6	248	0.00	29.832 
01:35	51.3	51.3	51.3	84	46.6	1	5	248	0.00	29.832 
01:40	51.3	51.3	51.3	84	46.6	2	6	248	0.00	29.832 
01:45	51.4	51.4	51.4	83	46.4	1	4	248	0.00	29.836 
01:50	51.4	51.4	51.4	83	46.4	2	6	225	0.00	29.836 
01:55	51.6	51.6	51.6	83	46.6	2	5	248	0.00	29.836 
02:00	51.6	51.6	51.6	82	46.3	1	4	248	0.00	29.839 
02:05	51.6	51.6	51.6	82	46.3	1	6	248	0.00	29.839 
02:10	51.6	51.6	51.6	82	46.3	1	6	225	0.00	29.839 
02:15	51.4	51.4	51.4	82	46.1	1	5	248	0.00	29.842 
02:20	51.3	51.3	51.3	82	46.0	1	3	248	0.00	29.842 
02:25	51.3	51.3	51.3	82	46.0	2	7	248	0.00	29.842 
02:30	51.4	51.4	51.4	82	46.1	1	4	248	0.00	29.854 
02:35	51.4	51.4	51.4	82	46.1	1	4	248	0.00	29.854 
02:40	51.3	51.3	51.3	81	45.7	1	3	248	0.00	29.854 
02:45	51.1	51.1	51.1	82	45.8	1	4	248	0.00	29.859 
02:50	51.1	51.1	51.1	82	45.8	1	4	248	0.00	29.859 
02:55	51.0	51.0	51.0	82	45.7	0	3	248	0.00	29.859 
03:00	51.0	51.0	51.0	82	45.7	1	4	248	0.00	29.860 
03:05	50.8	50.8	50.8	82	45.5	0	3	248	0.00	29.860 
03:10	50.5	50.5	50.5	82	45.2	0	2	248	0.00	29.860 
03:15	50.4	50.4	50.4	83	45.4	1	4	248	0.00	29.864 
03:20	50.4	50.4	50.4	83	45.4	0	2	248	0.00	29.864 
03:25	50.2	50.2	50.2	83	45.2	1	4	248	0.00	29.864 
03:30	50.2	50.2	50.2	83	45.2	0	2	248	0.00	29.862 
03:35	50.1	50.1	50.1	83	45.1	0	1	248	0.00	29.862 
03:40	49.9	49.9	49.9	83	44.9	0	3	248	0.00	29.862 
03:45	49.8	49.8	49.8	84	45.2	0	3	248	0.00	29.857 
03:50	49.6	49.6	49.6	84	45.0	0	2	248	0.00	29.857 
03:55	49.5	49.5	49.5	84	44.9	0	2	248	0.00	29.857 
04:00	49.5	49.5	49.5	84	44.9	0	2	248	0.00	29.859 
04:05	49.4	49.4	49.4	84	44.8	0	3	248	0.00	29.859 
04:10	49.2	49.2	49.2	84	44.6	0	2	248	0.00	29.859 
04:15	49.2	49.2	49.2	85	44.9	0	1	248	0.00	29.860 
04:20	49.1	49.1	49.1	85	44.8	0	4	248	0.00	29.860 
04:25	49.2	49.2	49.2	85	44.9	0	2	248	0.00	29.860 
04:30	49.2	49.2	49.2	85	44.9	0	3	248	0.00	29.855 
04:35	49.1	49.1	49.1	85	44.8	0	1	248	0.00	29.855 
04:40	49.1	49.1	49.1	85	44.8	0	3	248	0.00	29.855 
04:45	49.1	49.1	49.1	85	44.8	0	3	248	0.00	29.861 
04:50	49.1	49.1	49.1	85	44.8	0	1	248	0.00	29.861 
04:55	48.9	48.9	48.9	85	44.6	0	1	248	0.00	29.861 
05:00	48.9	48.9	48.9	85	44.6	0	1	248	0.00	29.848 
05:05	48.9	48.9	48.9	86	44.9	0	3	248	0.00	29.848 
05:10	48.9	48.9	48.9	86	44.9	0	3	248	0.00	29.848 
05:15	48.8	48.8	48.8	86	44.8	0	1	248	0.00	29.853 
05:20	48.9	48.9	48.9	86	44.9	1	3	248	0.00	29.853 
05:25	48.9	48.9	48.9	86	44.9	0	2	248	0.00	29.853 
05:30	49.1	49.1	49.1	86	45.1	0	2	248	0.00	29.856 
05:35	49.2	49.2	49.2	86	45.2	0	3	248	0.00	29.856 
05:40	49.2	49.2	49.2	86	45.2	0	2	248	0.00	29.856 
05:45	49.2	49.2	49.2	86	45.2	0	3	248	0.00	29.854 
05:50	49.2	49.2	49.2	86	45.2	0	1	248	0.00	29.854 
05:55	49.4	49.4	49.4	86	45.4	0	4	248	0.00	29.854 
06:00	49.4	49.4	49.4	86	45.4	0	1	248	0.00	29.858 
06:05	49.2	49.2	49.2	86	45.2	0	1	248	0.00	29.858 
06:10	49.4	49.4	49.4	87	45.7	0	2	248	0.00	29.858 
06:15	49.4	49.4	49.4	87	45.7	0	2	248	0.00	29.866 
06:20	49.4	49.4	49.4	87	45.7	0	1	248	0.00	29.866 
06:25	49.5	49.5	49.5	87	45.8	1	4	248	0.00	29.866 
06:30	49.5	49.5	49.5	87	45.8	1	3	248	0.00	29.876 
06:35	49.6	49.6	49.6	87	45.9	0	3	248	0.00	29.876 
06:40	49.6	49.6	49.6	87	45.9	1	4	248	0.00	29.876 
06:45	49.6	49.6	49.6	86	45.6	1	4	248	0.00	29.880 
06:50	49.6	49.6	49.6	86	45.6	0	3	248	0.00	29.880 
06:55	49.6	49.6	49.6	86	45.6	0	2	225	0.00	29.880 
07:00	49.6	49.6	49.6	87	45.9	0	4	225	0.00	29.876 
07:05	49.6	49.6	49.6	87	45.9	0	3	270	0.00	29.876 
07:10	49.5	49.5	49.5	87	45.8	0	2	270	0.00	29.876 
07:15	49.5	49.5	49.5	87	45.8	0	3	270	0.00	29.882 
07:20	49.6	49.6	49.6	87	45.9	1	3	270	0.00	29.882 
07:25	49.8	49.8	49.8	87	46.1	1	4	248	0.00	29.882 
07:30	49.9	49.9	49.9	87	46.2	1	3	248	0.00	29.896 
07:35	50.1	50.1	50.1	87	46.4	1	4	248	0.00	29.896 
07:40	50.1	50.1	50.1	87	46.4	1	4	248	0.00	29.896 
07:45	50.1	50.1	50.1	87	46.4	1	3	248	0.00	29.902 
07:50	50.2	50.2	50.2	87	46.5	1	5	248	0.00	29.902 
07:55	50.4	50.4	50.4	87	46.7	0	3	248	0.00	29.902 
08:00	50.4	50.4	50.4	87	46.7	1	3	248	0.00	29.914 
08:05	50.4	50.4	50.4	87	46.7	1	3	248	0.00	29.914 
08:10	50.5	50.5	50.5	87	46.8	1	5	248	0.00	29.914 
08:15	50.5	50.5	50.5	87	46.8	0	3	248	0.00	29.913 
08:20	50.7	50.7	50.7	87	47.0	1	4	248	0.00	29.913 
08:25	50.8	50.8	50.8	87	47.1	1	4	248	0.00	29.913 
08:30	51.0	51.0	51.0	87	47.3	1	4	248	0.00	29.924 
08:35	51.1	51.1	51.1	87	47.4	1	3	248	0.00	29.924 
08:40	51.3	51.3	51.3	87	47.6	1	5	248	0.00	29.924 
08:45	51.4	51.4	51.4	86	47.4	0	2	248	0.00	29.912 
08:50	51.6	51.6	51.6	86	47.5	1	4	248	0.00	29.912 
08:55	51.6	51.6	51.6	86	47.5	1	3	248	0.00	29.912 
09:00	51.7	51.7	51.7	86	47.6	1	3	248	0.00	29.923 
09:05	51.7	51.7	51.7	86	47.6	1	3	248	0.00	29.923 
09:10	51.7	51.7	51.7	86	47.6	1	3	248	0.00	29.923 
09:15	51.9	51.9	51.9	86	47.8	1	3	248	0.00	29.922 
09:20	51.9	51.9	51.9	86	47.8	1	5	248	0.00	29.922 
09:25	51.9	51.9	51.9	86	47.8	1	3	248	0.00	29.922 
09:30	51.9	51.9	51.9	86	47.8	1	3	248	0.00	29.930 
09:35	52.0	52.0	52.0	86	47.9	1	4	248	0.00	29.930 
09:40	52.0	52.0	52.0	86	47.9	1	4	248	0.00	29.930 
09:45	52.2	52.2	52.2	86	48.1	2	5	248	0.00	29.945 
09:50	52.3	52.3	52.3	86	48.2	2	5	248	0.00	29.945 
09:55	52.3	52.3	52.3	86	48.2	1	4	225	0.00	29.945 
10:00	52.5	52.5	52.5	86	48.4	1	5	248	0.00	29.942 
10:05	52.5	52.5	52.5	86	48.4	1	5	248	0.00	29.942 
10:10	52.6	52.6	52.6	86	48.5	2	9	248	0.00	29.942 
10:15	52.9	52.9	52.9	86	48.8	1	4	248	0.00	29.938 
10:20	53.3	53.3	53.3	86	49.2	1	4	248	0.00	29.938 
10:25	53.6	53.6	53.6	86	49.5	1	4	248	0.00	29.938 
10:30	54.2	54.2	54.2	85	49.8	1	4	248	0.00	29.938 
10:35	54.5	54.5	54.5	84	49.8	1	5	248	0.00	29.938 
10:40	55.0	55.0	55.0	83	49.9	1	5	248	0.00	29.938 
10:45	55.6	55.6	55.6	82	50.2	1	3	248	0.00	29.934 
10:50	55.7	55.7	55.7	81	50.0	2	5	248	0.00	29.934 
10:55	55.9	55.9	55.9	80	49.8	3	7	248	0.00	29.934 
11:00	56.2	56.2	56.2	80	50.1	1	5	248	0.00	29.934 
11:05	56.3	56.3	56.3	80	50.2	2	5	248	0.00	29.934 
11:10	56.6	56.6	56.6	80	50.5	1	4	248	0.00	29.934 
11:15	56.9	56.9	56.9	79	50.5	1	3	248	0.00	29.930 
11:20	57.2	57.2	57.2	79	50.7	1	4	248	0.00	29.930 
11:25	57.5	57.5	57.5	78	50.7	1	3	248	0.00	29.930 
11:30	57.3	57.3	57.3	77	50.1	3	6	248	0.00	29.926 
11:35	57.3	57.3	57.3	77	50.1	1	5	248	0.00	29.926 
11:40	57.3	57.3	57.3	77	50.1	1	6	248	0.00	29.926 
11:45	57.5	57.5	57.5	77	50.3	2	6	248	0.00	29.926 
11:50	57.8	57.8	57.8	77	50.6	2	6	248	0.00	29.926 
11:55	58.1	58.1	58.1	77	50.9	2	6	248	0.00	29.926 
12:00	58.1	58.1	58.1	76	50.6	3	7	248	0.00	29.921 
12:05	58.3	58.3	58.3	76	50.8	2	6	248	0.00	29.921 
12:10	58.3	58.3	58.3	76	50.8	1	4	248	0.00	29.921 
12:15	58.4	58.4	58.4	76	50.9	1	5	248	0.00	29.921 
12:20	58.6	58.6	58.6	76	51.1	2	6	248	0.00	29.921 
12:25	58.7	58.7	58.7	74	50.4	2	7	248	0.00	29.921 
12:30	58.7	58.7	58.7	73	50.1	2	6	248	0.00	29.912 
12:35	58.9	58.9	58.9	73	50.3	2	5	248	0.00	29.912 
12:40	59.2	59.2	59.2	73	50.5	1	3	248	0.00	29.912 
12:45	59.2	59.2	59.2	72	50.2	2	5	248	0.00	29.908 
12:50	59.2	59.2	59.2	71	49.8	2	5	248	0.00	29.908 
12:55	59.3	59.3	59.3	71	49.9	2	5	248	0.00	29.908 
13:00	59.3	59.3	59.3	72	50.3	2	5	248	0.00	29.913 
13:05	59.5	59.5	59.5	72	50.5	2	9	248	0.00	29.913 
13:10	59.5	59.5	59.5	72	50.5	2	6	248	0.00	29.913 
13:15	59.6	59.6	59.6	72	50.6	2	5	248	0.00	29.913 
13:20	59.6	59.6	59.6	72	50.6	1	4	248	0.00	29.913 
13:25	59.8	59.8	59.8	71	50.4	2	6	248	0.00	29.913 
13:30	59.6	59.6	59.6	72	50.6	2	5	248	0.00	29.914 
13:35	59.6	59.6	59.6	73	50.9	1	4	248	0.00	29.914 
13:40	59.5	59.5	59.5	72	50.5	2	6	248	0.00	29.914 
13:45	59.3	59.3	59.3	73	50.6	2	6	248	0.00	29.918 
13:50	59.3	59.3	59.3	73	50.6	1	4	248	0.00	29.918 
13:55	59.3	59.3	59.3	73	50.6	1	6	248	0.00	29.918 
14:00	59.3	59.3	59.3	73	50.6	2	6	248	0.00	29.923 
14:05	59.3	59.3	59.3	74	51.0	1	4	248	0.00	29.923 
14:10	59.5	59.5	59.5	74	51.2	1	4	248	0.00	29.923 
14:15	59.6	59.6	59.6	73	50.9	2	7	248	0.00	29.925 
14:20	59.6	59.6	59.6	73	50.9	2	5	248	0.00	29.925 
14:25	59.6	59.6	59.6	73	50.9	3	7	248	0.00	29.925 
14:30	59.6	59.6	59.6	73	50.9	1	5	248	0.00	29.926 
14:35	59.6	59.6	59.6	73	50.9	2	6	248	0.00	29.926 
14:40	59.8	59.8	59.8	73	51.1	1	3	248	0.00	29.926 
14:45	59.6	59.6	59.6	73	50.9	1	4	248	0.00	29.928 
14:50	59.8	59.8	59.8	73	51.1	1	3	248	0.00	29.928 
14:55	59.8	59.8	59.8	73	51.1	1	4	248	0.00	29.928 
15:00	59.9	59.9	59.9	73	51.2	0	2	248	0.00	29.918 
15:05	59.9	59.9	59.9	73	51.2	0	2	248	0.00	29.918 
15:10	59.9	59.9	59.9	73	51.2	0	4	248	0.00	29.918 
15:15	59.9	59.9	59.9	73	51.2	1	3	90	0.00	29.914 
15:20	59.8	59.8	59.8	75	51.9	0	3	22	0.00	29.914 
15:25	59.8	59.8	59.8	75	51.9	0	3	248	0.00	29.914 
15:30	59.6	59.6	59.6	74	51.3	0	2	248	0.00	29.920 
15:35	59.3	59.3	59.3	75	51.4	1	6	112	0.00	29.920 
15:40	59.0	59.0	59.0	76	51.4	1	2	112	0.00	29.920 
15:45	58.9	58.9	58.9	77	51.7	0	1	112	0.00	29.921 
15:50	58.6	58.6	58.6	77	51.4	1	4	45	0.00	29.921 
15:55	58.3	58.3	58.3	78	51.5	0	1	45	0.00	29.921 
16:00	58.1	58.1	58.1	79	51.6	0	3	45	0.00	29.923 
16:05	58.1	58.1	58.1	79	51.6	0	3	248	0.00	29.923 
16:10	58.0	58.0	58.0	80	51.9	0	4	248	0.00	29.923 
16:15	58.0	58.0	58.0	80	51.9	0	2	112	0.00	29.931 
16:20	57.8	57.8	57.8	80	51.7	0	2	112	0.00	29.931 
16:25	57.8	57.8	57.8	81	52.0	0	1	270	0.00	29.931 
16:30	57.6	57.6	57.6	81	51.8	0	1	270	0.00	29.924 
16:35	57.5	57.5	57.5	81	51.7	0	1	270	0.00	29.924 
16:40	57.5	57.5	57.5	81	51.7	0	3	270	0.00	29.924 
16:45	57.3	57.3	57.3	81	51.5	0	1	270	0.00	29.933 
16:50	57.3	57.3	57.3	81	51.5	0	1	270	0.00	29.933 
16:55	57.2	57.2	57.2	81	51.4	0	0	---	0.00	29.933 
17:00	57.0	57.0	57.0	81	51.2	0	0	---	0.00	29.920 
17:05	56.9	56.9	56.9	82	51.5	0	0	---	0.00	29.920 
17:10	56.6	56.6	56.6	82	51.2	0	0	---	0.00	29.920 
17:15	56.5	56.5	56.5	82	51.1	0	0	---	0.00	29.918 
17:20	56.3	56.3	56.3	83	51.2	0	0	---	0.00	29.918 
17:25	56.0	56.0	56.0	83	50.9	0	0	---	0.00	29.918 
17:30	55.7	55.7	55.7	83	50.6	0	0	---	0.00	29.915 
17:35	55.4	55.4	55.4	83	50.3	0	0	---	0.00	29.915 
17:40	55.3	55.3	55.3	84	50.5	0	0	---	0.00	29.915 
17:45	55.0	55.0	55.0	84	50.3	0	0	---	0.00	29.913 
17:50	54.7	54.7	54.7	85	50.3	0	0	---	0.00	29.913 
17:55	54.4	54.4	54.4	85	50.0	0	0	---	0.00	29.913 
18:00	54.1	54.1	54.1	86	50.0	0	0	---	0.00	29.908 
18:05	53.8	53.8	53.8	86	49.7	0	0	---	0.00	29.908 
18:10	53.6	53.6	53.6	87	49.8	0	0	---	0.00	29.908 
18:15	53.5	53.5	53.5	87	49.7	0	0	---	0.00	29.916 
18:20	53.2	53.2	53.2	87	49.4	0	0	---	0.00	29.916 
18:25	52.9	52.9	52.9	88	49.4	0	0	---	0.00	29.916 
18:30	52.8	52.8	52.8	88	49.3	0	0	---	0.00	29.908 
18:35	52.6	52.6	52.6	88	49.1	0	0	---	0.00	29.908 
18:40	52.3	52.3	52.3	88	48.9	0	0	---	0.00	29.908 
18:45	52.2	52.2	52.2	89	49.1	0	0	---	0.00	29.907 
18:50	52.2	52.2	52.2	89	49.1	0	0	---	0.00	29.907 
18:55	52.0	52.0	52.0	89	48.9	0	0	---	0.00	29.907 
19:00	51.9	51.9	51.9	89	48.8	0	0	---	0.00	29.905 
19:05	51.7	51.7	51.7	90	48.9	0	0	---	0.00	29.905 
19:10	51.6	51.6	51.6	90	48.8	0	0	---	0.00	29.905 
19:15	51.3	51.3	51.3	90	48.5	0	0	---	0.00	29.896 
19:20	51.3	51.3	51.3	90	48.5	0	0	---	0.00	29.896 
19:25	51.1	51.1	51.1	90	48.3	0	0	---	0.00	29.896 
19:30	51.1	51.1	51.1	90	48.3	0	0	---	0.00	29.893 
19:35	51.0	51.0	51.0	91	48.5	0	0	---	0.00	29.893 
19:40	51.0	51.0	51.0	91	48.5	0	0	---	0.00	29.893 
19:45	51.0	51.0	51.0	91	48.5	0	0	---	0.00	29.886 
19:50	50.8	50.8	50.8	92	48.6	0	0	---	0.00	29.886 
19:55	50.8	50.8	50.8	92	48.6	0	0	---	0.00	29.886 
20:00	50.7	50.7	50.7	92	48.5	0	0	---	0.00	29.876 
20:05	50.5	50.5	50.5	92	48.3	0	0	---	0.00	29.876 
20:10	50.5	50.5	50.5	92	48.3	0	0	---	0.00	29.876 
20:15	50.5	50.5	50.5	92	48.3	0	0	---	0.00	29.877 
20:20	50.5	50.5	50.5	92	48.3	0	0	---	0.00	29.877 
20:25	50.5	50.5	50.5	92	48.3	0	0	---	0.00	29.877 
20:30	50.5	50.5	50.5	92	48.3	0	0	---	0.00	29.876 
20:35	50.5	50.5	50.5	92	48.3	0	0	---	0.00	29.876 
20:40	50.5	50.5	50.5	92	48.3	0	0	---	0.00	29.876 
20:45	50.5	50.5	50.5	93	48.6	0	0	---	0.00	29.879 
20:50	50.7	50.7	50.7	93	48.7	0	0	---	0.00	29.879 
20:55	50.7	50.7	50.7	93	48.7	0	0	---	0.00	29.879 
21:00	50.7	50.7	50.7	93	48.7	0	0	---	0.00	29.876 
21:05	50.8	50.8	50.8	93	48.8	0	0	---	0.01	29.876 
21:10	51.0	51.0	51.0	93	49.0	0	0	---	0.00	29.876 
21:15	51.0	51.0	51.0	93	49.0	0	0	---	0.01	29.860 
21:20	51.1	51.1	51.1	93	49.1	0	0	---	0.02	29.860 
21:25	51.3	51.3	51.3	94	49.6	0	0	---	0.00	29.860 
21:30	51.4	51.4	51.4	94	49.7	0	2	270	0.02	29.850 
21:35	51.6	51.6	51.6	94	49.9	0	2	270	0.00	29.850 
21:40	51.9	51.9	51.9	94	50.2	0	2	270	0.01	29.850 
21:45	52.0	52.0	52.0	94	50.3	1	3	270	0.01	29.849 
21:50	52.0	52.0	52.0	94	50.3	1	3	22	0.00	29.849 
21:55	52.0	52.0	52.0	94	50.3	1	2	22	0.01	29.849 
22:00	51.9	51.9	51.9	94	50.2	1	3	22	0.01	29.828 
22:05	51.9	51.9	51.9	95	50.5	1	3	45	0.01	29.828 
22:10	51.9	51.9	51.9	95	50.5	1	3	45	0.01	29.828 
22:15	51.9	51.9	51.9	95	50.5	1	3	45	0.00	29.807 
22:20	52.0	52.0	52.0	95	50.6	0	3	112	0.01	29.807 
22:25	52.2	52.2	52.2	95	50.8	1	5	112	0.01	29.807 
22:30	52.3	52.3	52.3	95	50.9	2	5	90	0.01	29.782 
22:35	52.5	52.5	52.5	95	51.1	2	5	112	0.01	29.782 
22:40	52.5	52.5	52.5	95	51.1	3	6	112	0.01	29.782 
22:45	52.3	52.3	52.3	95	50.9	3	6	112	0.01	29.765 
22:50	52.3	52.3	52.3	95	50.9	2	7	90	0.01	29.765 
22:55	52.3	52.3	52.3	96	51.2	0	3	90	0.01	29.765 
23:00	52.2	52.2	52.2	96	51.1	0	2	68	0.01	29.758 
23:05	52.3	52.3	52.3	96	51.2	0	2	0	0.01	29.758 
23:10	52.3	52.3	52.3	96	51.2	0	1	0	0.00	29.758 
23:15	52.3	52.3	52.3	96	51.2	0	1	0	0.00	29.760 
23:20	52.3	52.3	52.3	96	51.2	1	4	90	0.01	29.760 
23:25	52.3	52.3	52.3	96	51.2	0	2	90	0.00	29.760 
23:30	52.3	52.3	52.3	96	51.2	0	0	---	0.01	29.761 
23:35	52.3	52.3	52.3	96	51.2	0	0	---	0.01	29.761 
23:40	52.3	52.3	52.3	96	51.2	0	1	90	0.01	29.761 
23:45	52.3	52.3	52.3	96	51.2	0	1	90	0.01	29.741 
23:50	52.3	52.3	52.3	96	51.2	0	2	90	0.01	29.741 
23:55	52.3	52.3	52.3	96	51.2	0	3	90	0.02	29.741 

CoCoRaHS
IN-AL-39
A2 Web Hosting
Creative Commons License
GoDaddy
search engine by freefind advanced

loaded 2018-11-17 12:04:44 • last modified 2010-11-18 10:43:29
Privacy PolicyDisclaimer
• wx.awcolley.com is powered by PmWiki v.2002016 •
• all content (unless otherwise noted) © 2018 A W Colley